Portada
METAR-TAF:

METAR-TAF

Aeroports :

Hassi Messaoud, Algèria

latitud: 31-40N, longitud: 006-09E, altitud: 142 m

Observació

L'informe es va fer fa 33 minuts, a les 15:00 UTC
Vent 9 kt del Oest/Nord-Oest
Temperatura 25°C
Humitat 26%
Pressió 1014 hPa
Visibilitat 10 km o més
sense núvols per sota de 1500 mi sense presència de cumulonimbus.

METAR: DAUH 261500Z 30009KT CAVOK 25/04 Q1014

Hora: 16:33 (15:33 UTC)

Pronòstic

L'informe es va fer fa 4 hores i 33 minuts, a les 11:00 UTC
Pronòstic vàlid del 26 a les 12 UTC al 27 a les 12 UTC
Vent 12 kt del Nord/Nord-Oest
Visibilitat 10 km o més
sense núvols per sota de 1500 mi sense presència de cumulonimbus.
Probabilitat 30% :
Temporalment
l' 26 a les 12 UTC al 26 a les 16 UTC
Visibilitat: 5000 m
calitja
Evolucionant progressivament
l' 26 a les 20 UTC al 26 a les 23 UTC
Vent 2 kt amb direcció variable

TAF: DAUH 261100Z 2612/2712 34012KT CAVOK PROB30 TEMPO 2612/2616 5000 HZ BECMG 2620/2623 VRB02KT

Observacions i pronòstics meteorològics de més de 4000 aeroports (METAR i TAF).

Les estacions disponibles són els punts grocs i vermells al mapa.

Posi el ratolí al punt desitjat per veure el nom de l'estació.

Feu clic per veure les observacions i els pronòstics meteorològics.

Per canviar el mapa: feu clic els botons verds amb una creu de color negre per apropar; al botó verd amb un guió per allunyar la imatge; o en les fletxes verdes per a mapes adjacents.


METAR-TAF: